createdAt,value
2018-05-18T00:01:01.910Z,16.14
2018-05-18T00:03:30.097Z,16.02
2018-05-18T00:05:58.260Z,15.99
2018-05-18T00:08:26.421Z,15.95
2018-05-18T00:10:55.355Z,15.90
2018-05-18T00:13:23.516Z,15.87
2018-05-18T00:15:51.699Z,15.86
2018-05-18T00:18:19.892Z,15.81
2018-05-18T00:20:48.062Z,15.80
2018-05-18T00:23:16.229Z,15.75
2018-05-18T00:25:44.397Z,15.67
2018-05-18T00:28:12.566Z,15.67
2018-05-18T00:30:40.751Z,15.62
2018-05-18T00:33:08.931Z,15.58
2018-05-18T00:35:37.097Z,15.57
2018-05-18T00:38:05.268Z,15.55
2018-05-18T00:40:34.430Z,15.52
2018-05-18T00:43:03.397Z,15.50
2018-05-18T00:45:31.573Z,15.51
2018-05-18T00:47:59.749Z,15.49
2018-05-18T00:50:27.912Z,15.47
2018-05-18T00:52:56.084Z,15.49
2018-05-18T00:55:40.963Z,15.48
2018-05-18T00:58:09.136Z,15.51
2018-05-18T01:00:37.297Z,15.51
2018-05-18T01:03:05.467Z,15.53
2018-05-18T01:05:33.641Z,15.59
2018-05-18T01:08:01.810Z,15.60
2018-05-18T01:10:29.996Z,15.65
2018-05-18T01:12:58.173Z,15.59
2018-05-18T01:15:26.356Z,15.62
2018-05-18T01:17:54.534Z,15.56
2018-05-18T01:20:22.773Z,15.55
2018-05-18T01:22:50.956Z,15.51
2018-05-18T01:25:19.129Z,15.46
2018-05-18T01:27:47.343Z,15.42
2018-05-18T01:30:16.280Z,15.36
2018-05-18T01:32:44.449Z,15.34
2018-05-18T01:35:12.629Z,15.36
2018-05-18T01:37:40.792Z,15.32
2018-05-18T01:40:08.955Z,15.30
2018-05-18T01:42:37.127Z,15.27
2018-05-18T01:45:05.291Z,15.26
2018-05-18T01:47:34.237Z,15.24
2018-05-18T01:50:02.413Z,15.22
2018-05-18T01:52:30.592Z,15.15
2018-05-18T01:54:58.763Z,15.13
2018-05-18T01:57:26.931Z,15.10
2018-05-18T01:59:55.145Z,15.07
2018-05-18T02:02:24.106Z,15.07
2018-05-18T02:04:52.273Z,15.07
2018-05-18T02:07:20.445Z,15.09
2018-05-18T02:09:48.624Z,15.03
2018-05-18T02:12:16.794Z,14.97
2018-05-18T02:14:44.971Z,14.99
2018-05-18T02:17:13.140Z,15.01
2018-05-18T02:19:41.306Z,14.96
2018-05-18T02:22:09.490Z,14.99
2018-05-18T02:24:37.653Z,14.91
2018-05-18T02:27:05.826Z,14.87
2018-05-18T02:29:34.011Z,14.81
2018-05-18T02:32:02.184Z,14.86
2018-05-18T02:34:30.371Z,14.77
2018-05-18T02:36:58.545Z,14.74
2018-05-18T02:39:26.710Z,14.76
2018-05-18T02:41:54.919Z,14.70
2018-05-18T02:44:23.087Z,14.68
2018-05-18T02:46:51.273Z,14.65
2018-05-18T02:49:20.230Z,14.62
2018-05-18T02:51:48.403Z,14.69
2018-05-18T02:54:16.566Z,14.60
2018-05-18T02:56:44.767Z,14.61
2018-05-18T02:59:12.946Z,14.58
2018-05-18T03:01:41.114Z,14.55
2018-05-18T03:04:09.317Z,14.45
2018-05-18T03:06:38.271Z,14.41
2018-05-18T03:09:06.457Z,14.38
2018-05-18T03:11:34.631Z,14.36
2018-05-18T03:14:02.792Z,14.35
2018-05-18T03:16:30.967Z,14.34
2018-05-18T03:18:59.149Z,14.26
2018-05-18T03:21:27.313Z,14.21
2018-05-18T03:23:55.489Z,14.18
2018-05-18T03:26:23.653Z,14.22
2018-05-18T03:28:51.817Z,14.20
2018-05-18T03:31:19.986Z,14.19
2018-05-18T03:33:48.160Z,14.20
2018-05-18T03:36:16.364Z,14.16
2018-05-18T03:38:44.536Z,14.13
2018-05-18T03:41:12.712Z,14.08
2018-05-18T03:43:40.873Z,14.07
2018-05-18T03:46:09.035Z,14.06
2018-05-18T03:48:37.217Z,14.07
2018-05-18T03:51:05.385Z,14.07
2018-05-18T03:53:33.567Z,14.09
2018-05-18T03:56:01.738Z,14.14
2018-05-18T03:58:29.922Z,14.15
2018-05-18T04:00:58.174Z,14.18
2018-05-18T04:03:44.253Z,14.20
2018-05-18T04:06:31.084Z,14.24
2018-05-18T04:08:59.267Z,14.27
2018-05-18T04:11:27.453Z,14.35
2018-05-18T04:13:55.638Z,14.42
2018-05-18T04:16:23.804Z,14.47
2018-05-18T04:18:51.978Z,14.55
2018-05-18T04:21:20.147Z,14.63
2018-05-18T04:23:48.315Z,14.75
2018-05-18T04:26:16.489Z,14.89
2018-05-18T04:28:44.661Z,15.00
2018-05-18T04:31:12.844Z,15.03
2018-05-18T04:33:41.012Z,15.10
2018-05-18T04:36:09.184Z,15.16
2018-05-18T04:38:37.403Z,15.17
2018-05-18T04:41:05.570Z,15.17
2018-05-18T04:43:33.750Z,15.14
2018-05-18T04:46:01.916Z,15.21
2018-05-18T04:48:30.098Z,15.25
2018-05-18T04:50:58.313Z,15.24
2018-05-18T04:53:26.453Z,15.25
2018-05-18T04:55:54.622Z,15.28
2018-05-18T04:58:22.785Z,15.42
2018-05-18T05:00:50.957Z,15.49
2018-05-18T05:03:19.143Z,15.62
2018-05-18T05:05:47.312Z,15.61
2018-05-18T05:08:15.474Z,15.50
2018-05-18T05:10:43.644Z,15.46
2018-05-18T05:13:11.805Z,15.53
2018-05-18T05:15:39.971Z,15.55
2018-05-18T05:18:08.147Z,15.48
2018-05-18T05:20:36.320Z,15.47
2018-05-18T05:23:04.489Z,15.64
2018-05-18T05:25:32.652Z,15.70
2018-05-18T05:28:01.584Z,15.81
2018-05-18T05:30:29.844Z,15.91
2018-05-18T05:32:57.986Z,15.99
2018-05-18T05:35:26.933Z,15.93
2018-05-18T05:37:55.116Z,15.90
2018-05-18T05:40:23.287Z,15.98
2018-05-18T05:42:51.467Z,15.88
2018-05-18T05:45:19.637Z,15.90
2018-05-18T05:47:47.806Z,15.91
2018-05-18T05:50:15.982Z,15.97
2018-05-18T05:52:44.238Z,16.06
2018-05-18T05:55:13.869Z,16.21
2018-05-18T05:57:42.038Z,16.37
2018-05-18T06:00:10.216Z,16.49
2018-05-18T06:02:38.388Z,16.72
2018-05-18T06:05:06.557Z,16.76
2018-05-18T06:07:34.731Z,16.78
2018-05-18T06:10:02.902Z,16.90
2018-05-18T06:12:31.076Z,17.01
2018-05-18T06:14:59.250Z,17.15
2018-05-18T06:17:27.433Z,17.23
2018-05-18T06:19:55.618Z,17.38
2018-05-18T06:22:23.787Z,17.53
2018-05-18T06:24:51.957Z,17.65
2018-05-18T06:27:20.124Z,17.80
2018-05-18T06:29:48.292Z,17.88
2018-05-18T06:32:16.465Z,17.92
2018-05-18T06:34:44.734Z,18.03
2018-05-18T06:37:12.845Z,18.16
2018-05-18T06:39:41.021Z,18.25
2018-05-18T06:42:09.215Z,18.46
2018-05-18T06:44:37.399Z,18.65
2018-05-18T06:47:06.342Z,18.71
2018-05-18T06:49:34.535Z,18.78
2018-05-18T06:52:02.709Z,18.89
2018-05-18T06:54:30.870Z,18.96
2018-05-18T06:56:59.047Z,19.13
2018-05-18T06:59:27.208Z,19.32
2018-05-18T07:01:55.379Z,19.55
2018-05-18T07:04:23.541Z,19.70
2018-05-18T07:06:51.711Z,19.85
2018-05-18T07:09:19.895Z,19.84
2018-05-18T07:11:48.076Z,20.04
2018-05-18T07:14:16.272Z,20.20
2018-05-18T07:16:44.432Z,20.24
2018-05-18T07:19:12.596Z,20.44
2018-05-18T07:21:40.770Z,20.37
2018-05-18T07:24:08.940Z,20.62
2018-05-18T07:26:37.233Z,20.85
2018-05-18T07:29:05.401Z,21.02
2018-05-18T07:31:33.605Z,21.03
2018-05-18T07:34:01.776Z,21.26
2018-05-18T07:36:29.944Z,21.28
2018-05-18T07:38:58.188Z,21.31
2018-05-18T07:41:26.293Z,21.35
2018-05-18T07:43:54.513Z,21.31
2018-05-18T07:46:22.658Z,21.40
2018-05-18T07:51:09.969Z,21.22
2018-05-18T07:53:38.237Z,21.37
2018-05-18T07:56:06.342Z,21.41
2018-05-18T07:58:34.513Z,21.56
2018-05-18T08:01:02.704Z,21.86
2018-05-18T08:03:31.644Z,21.83
2018-05-18T08:05:59.820Z,22.09
2018-05-18T08:08:28.070Z,22.15
2018-05-18T08:10:56.259Z,22.30
2018-05-18T08:13:24.443Z,22.38
2018-05-18T08:15:52.652Z,22.34
2018-05-18T08:18:20.845Z,22.17
2018-05-18T08:20:49.023Z,22.26
2018-05-18T08:23:17.964Z,22.22
2018-05-18T08:25:46.131Z,22.09
2018-05-18T08:28:14.309Z,22.19
2018-05-18T08:31:00.937Z,22.13
2018-05-18T08:33:29.107Z,22.18
2018-05-18T08:35:57.293Z,22.03
2018-05-18T08:38:25.465Z,22.09
2018-05-18T08:40:53.637Z,22.06
2018-05-18T08:43:21.808Z,22.18
2018-05-18T08:45:49.987Z,22.18
2018-05-18T08:48:18.167Z,22.06
2018-05-18T08:50:46.384Z,21.96
2018-05-18T08:53:15.322Z,21.99
2018-05-18T08:55:43.495Z,22.05
2018-05-18T08:58:11.669Z,21.96
2018-05-18T09:00:39.848Z,22.18
2018-05-18T09:03:08.215Z,22.46
2018-05-18T09:05:37.310Z,22.57
2018-05-18T09:08:05.489Z,22.50
2018-05-18T09:10:33.665Z,22.51
2018-05-18T09:13:01.839Z,22.35
2018-05-18T09:15:30.262Z,22.63
2018-05-18T09:17:59.306Z,22.68
2018-05-18T09:20:27.479Z,22.71
2018-05-18T09:22:55.653Z,22.40
2018-05-18T09:25:23.822Z,22.12
2018-05-18T09:27:51.990Z,21.70
2018-05-18T09:30:20.168Z,21.44
2018-05-18T09:32:48.337Z,21.61
2018-05-18T09:35:16.508Z,21.57
2018-05-18T09:37:44.697Z,21.85
2018-05-18T09:40:12.857Z,21.83
2018-05-18T09:42:41.024Z,21.75
2018-05-18T09:45:09.245Z,21.74
2018-05-18T09:47:37.382Z,21.26
2018-05-18T09:50:05.546Z,21.39
2018-05-18T09:52:34.469Z,21.28
2018-05-18T09:55:02.777Z,21.25
2018-05-18T09:57:31.622Z,21.37
2018-05-18T09:59:59.796Z,21.35
2018-05-18T10:02:27.968Z,21.33
2018-05-18T10:04:56.136Z,21.34
2018-05-18T10:07:24.311Z,21.57
2018-05-18T10:09:52.541Z,21.81
2018-05-18T10:12:20.728Z,21.91
2018-05-18T10:14:48.927Z,22.33
2018-05-18T10:17:17.866Z,22.45
2018-05-18T10:19:46.052Z,22.31
2018-05-18T10:22:14.227Z,22.69
2018-05-18T10:24:42.420Z,22.76
2018-05-18T10:27:10.604Z,23.05
2018-05-18T10:29:39.565Z,23.09
2018-05-18T10:32:07.737Z,23.13
2018-05-18T10:34:35.912Z,23.51
2018-05-18T10:37:04.081Z,23.53
2018-05-18T10:39:33.138Z,23.61
2018-05-18T10:42:01.252Z,23.68
2018-05-18T10:44:29.421Z,24.00
2018-05-18T10:46:57.589Z,23.96
2018-05-18T10:49:25.765Z,24.18
2018-05-18T10:51:53.949Z,24.32
2018-05-18T10:54:22.122Z,24.48
2018-05-18T10:56:50.296Z,24.40
2018-05-18T10:59:19.078Z,24.53
2018-05-18T11:01:47.242Z,24.55
2018-05-18T11:04:15.620Z,24.36
2018-05-18T11:06:43.792Z,24.23
2018-05-18T11:09:11.962Z,24.24
2018-05-18T11:11:40.140Z,24.17
2018-05-18T11:14:08.443Z,24.00
2018-05-18T11:16:36.551Z,23.86
2018-05-18T11:19:05.658Z,23.93
2018-05-18T11:21:34.591Z,23.99
2018-05-18T11:24:02.758Z,23.95
2018-05-18T11:26:30.930Z,23.98
2018-05-18T11:28:59.093Z,23.75
2018-05-18T11:31:27.301Z,23.93
2018-05-18T11:33:55.468Z,23.92
2018-05-18T11:36:23.644Z,23.64
2018-05-18T11:38:51.812Z,23.70
2018-05-18T11:41:19.985Z,24.16
2018-05-18T11:43:48.160Z,24.29
2018-05-18T11:46:16.332Z,24.18
2018-05-18T11:48:50.782Z,24.28
2018-05-18T11:51:19.338Z,24.44
2018-05-18T11:53:47.760Z,24.63
2018-05-18T11:56:19.398Z,24.51
2018-05-18T11:58:47.576Z,24.74
2018-05-18T12:01:15.765Z,24.74
2018-05-18T12:03:47.584Z,24.94
2018-05-18T12:06:18.632Z,25.02
2018-05-18T12:08:46.802Z,25.21
2018-05-18T12:11:15.377Z,25.55
2018-05-18T12:13:44.909Z,25.89
2018-05-18T12:16:13.925Z,26.06
2018-05-18T12:18:42.195Z,25.88
2018-05-18T12:21:10.937Z,26.05
2018-05-18T12:23:39.949Z,26.10
2018-05-18T12:26:08.232Z,25.76
2018-05-18T12:28:41.353Z,25.71
2018-05-18T12:31:10.308Z,25.65
2018-05-18T12:33:38.480Z,25.94
2018-05-18T12:36:06.702Z,26.28
2018-05-18T12:38:35.645Z,26.29
2018-05-18T12:41:03.847Z,26.57
2018-05-18T12:43:32.025Z,26.98
2018-05-18T12:46:01.714Z,27.85
2018-05-18T12:48:29.889Z,28.44
2018-05-18T12:50:58.056Z,28.63
2018-05-18T12:53:26.230Z,28.64
2018-05-18T12:55:54.408Z,28.99
2018-05-18T12:58:22.568Z,29.65
2018-05-18T13:00:50.748Z,29.84
2018-05-18T13:03:18.926Z,30.79
2018-05-18T13:05:47.114Z,33.62
2018-05-18T13:08:15.329Z,36.11
2018-05-18T13:10:44.245Z,38.35
2018-05-18T13:13:12.420Z,38.98
2018-05-18T13:15:40.586Z,39.00
2018-05-18T13:18:08.761Z,40.11
2018-05-18T13:20:36.958Z,41.05
2018-05-18T13:23:05.143Z,40.87
2018-05-18T13:25:33.328Z,41.04
2018-05-18T13:28:01.505Z,41.33
2018-05-18T13:30:29.734Z,42.45
2018-05-18T13:32:57.889Z,43.29
2018-05-18T13:35:26.844Z,42.61
2018-05-18T13:37:55.029Z,40.21
2018-05-18T13:40:23.240Z,37.44
2018-05-18T13:42:52.356Z,35.16
2018-05-18T13:45:20.521Z,34.39
2018-05-18T13:47:48.694Z,35.81
2018-05-18T13:50:16.869Z,37.75
2018-05-18T13:52:45.040Z,38.88
2018-05-18T13:55:13.218Z,38.26
2018-05-18T13:57:41.389Z,38.08
2018-05-18T14:00:09.571Z,38.92
2018-05-18T14:02:37.737Z,39.46
2018-05-18T14:05:06.673Z,39.50
2018-05-18T14:07:34.852Z,38.70
2018-05-18T14:10:03.020Z,36.72
2018-05-18T14:12:31.228Z,34.99
2018-05-18T14:15:00.181Z,33.50
2018-05-18T14:17:28.368Z,32.02
2018-05-18T14:19:56.553Z,30.58
2018-05-18T14:22:24.726Z,29.62
2018-05-18T14:24:52.894Z,28.85
2018-05-18T14:27:21.066Z,28.00
2018-05-18T14:29:49.244Z,27.37
2018-05-18T14:32:17.428Z,26.69
2018-05-18T14:34:45.597Z,26.07
2018-05-18T14:37:13.767Z,25.16
2018-05-18T14:39:41.932Z,24.26
2018-05-18T14:42:10.119Z,23.38
2018-05-18T14:44:38.302Z,22.44
2018-05-18T14:47:06.498Z,21.82
2018-05-18T14:49:35.449Z,20.87
